Startpagina
METAR-TAF:

METAR-TAF

Vliegvelden :

Aéroport de Nîmes-Alés-Camargue-Cévennes

Nîmes, Frankrijk

breedte: 43-45N, lengte: 004-25E, hoogte: 94 m

Actueel weer

Dit bericht is 25 minuten geleden gemaakt, om 02:30 UTC
Wind 4 kt uit het westnoordwesten
Temperatuur 17°C
Vochtigheid 77%
Druk 1017 hPa
Zicht 10 km of meer
geen wolken onder 1500 m en geen cumulonimbus

METAR: LFTW 240230Z AUTO 29004KT CAVOK 17/13 Q1017 TEMPO SHRA FEW040CB

Tijdstip: 04:55 (02:55 UTC)

Verwachting

Dit bericht is 55 minuten geleden gemaakt, om 02:00 UTC
Verwachting geldig van 24 om 03 UTC tot 25 om 03 UTC
Wind 8 kt uit het westnoordwesten
Zicht 10 km of meer
geen wolken onder 1500 m en geen cumulonimbus
Kans 30% :
Tijdelijke
van 24 om 03 UTC tot 24 om 06 UTC
Weinig wolken op 4000 ft, Cumulonimbus.
regenbuien
Wijzigt naar
van 24 om 16 UTC tot 24 om 18 UTC
Wind 14 kt uit het noorden

TAF: LFTW 240200Z 2403/2503 29008KT CAVOK PROB30 TEMPO 2403/2406 SHRA FEW040CB BECMG 2416/2418 01014KT

Waarnemingen en weersverwachtingen van meer dan 4000 vliegvelden (METAR en TAF).

De beschikbare stations zijn de gele en rode punten op de kaart.

Ga met uw muis naar het station om de naam te zien.

Klik dan om waarnemingen en weersverwachtingen te zien.

kaart wijzigen: klik op de groene knoppen met een zwart kruis om in te zoomen, op de groene knop met een streepje om uit te zoomen of op de groene pijlen voor aangrenzende kaarten.


METAR-TAF: